Latest Weather Observations for Charles Point

IDD60801

Issued at 11:41 pm CST Sunday 20 May 2018 (issued every 10 minutes, with the page automatically refreshed every 10 minutes)

About weather observations | Map of weather stations | Latest weather observations for NT | Other Formats
Station Details ID: 014031 Name: CHARLES POINT Lat: -12.39 Lon: 130.63 Height: 14.0 m
Data from the previous 72 hours. | See also: Recent months for locations in Northern Territory
Date/Time
CST
Temp
°C
App
Temp
°C
Dew
Point
°C
Rel
Hum
%
Delta-T
°C
Wind Press
QNH
hPa
Press
MSL
hPa
Rain since
9am
mm
Dir  Spd
km/h
Gust
km/h
Spd
kts
Gust
kts
20/11:30pm 24.0 26.6 20.1 79 2.5 S 6 9 3 5 1013.2 1013.1 0.0
20/11:00pm 23.9 26.6 20.2 80 2.4 SSW 6 9 3 5 1013.4 1013.3 0.0
20/10:30pm 24.2 26.8 20.1 78 2.7 S 6 9 3 5 1013.5 1013.4 0.0
20/10:00pm 23.9 26.4 19.8 78 2.6 SSW 6 7 3 4 1013.4 1013.3 0.0
20/09:30pm 24.1 26.8 20.2 79 2.5 S 6 6 3 3 1013.2 1013.1 0.0
20/09:00pm 24.5 27.7 20.4 78 2.7 S 4 6 2 3 1013.0 1012.9 0.0
20/08:30pm 25.0 27.6 20.5 76 2.9 SSW 7 11 4 6 1012.7 1012.6 0.0
20/08:00pm 25.4 29.6 20.9 76 3.0 CALM 0 0 0 0 1012.1 1012.0 0.0
20/07:30pm 26.0 30.2 21.0 74 3.3 CALM 0 0 0 0 1011.7 1011.6 0.0
20/07:00pm 26.4 30.7 21.2 73 3.4 CALM 0 4 0 2 1011.2 1011.1 0.0
20/06:30pm 27.1 30.5 21.6 72 3.7 NNE 6 7 3 4 1011.0 1010.9 0.0
20/06:00pm 27.4 30.7 21.9 72 3.7 NNE 7 11 4 6 1010.7 1010.6 0.0
20/05:30pm 28.0 31.3 21.8 69 4.2 NNE 7 11 4 6 1010.2 1010.1 0.0
20/05:00pm 28.2 31.6 22.0 69 4.2 NNW 7 9 4 5 1009.9 1009.8 0.0
20/04:30pm 28.9 32.7 21.7 65 4.8 N 4 6 2 3 1009.7 1009.6 0.0
20/04:00pm 30.4 32.2 18.8 50 7.5 NE 7 11 4 6 1009.5 1009.4 0.0
20/03:30pm 30.8 32.4 19.2 50 7.6 E 9 13 5 7 1009.6 1009.5 0.0
20/03:00pm 30.9 31.8 18.3 47 8.1 E 11 22 6 12 1009.6 1009.5 0.0
20/02:30pm 31.3 31.3 17.2 42 9.0 E 13 20 7 11 1009.7 1009.6 0.0
20/02:00pm 30.8 30.5 16.4 42 9.0 ESE 13 24 7 13 1010.0 1009.9 0.0
20/01:30pm 30.5 30.1 16.1 41 9.0 ESE 13 26 7 14 1010.3 1010.2 0.0
20/01:00pm 30.6 31.0 17.3 45 8.4 ESE 11 22 6 12 1010.8 1010.7 0.0
20/12:30pm 29.7 29.8 16.5 45 8.3 ESE 11 22 6 12 1011.1 1011.0 0.0
20/12:00pm 29.4 28.4 16.6 46 8.0 ESE 17 30 9 16 1011.4 1011.3 0.0
20/11:30am 28.6 27.7 15.8 45 7.9 ESE 15 26 8 14 1011.8 1011.7 0.0
20/11:00am 28.0 26.3 16.3 49 7.2 ESE 20 37 11 20 1012.1 1012.0 0.0
20/10:30am 26.8 25.2 16.1 52 6.6 ESE 19 28 10 15 1012.3 1012.2 0.0
20/10:00am 26.0 24.9 16.3 55 6.0 ESE 17 28 9 15 1012.4 1012.3 0.0
20/09:30am 25.1 24.2 16.8 60 5.1 SE 17 30 9 16 1012.7 1012.6 0.0
20/09:00am 24.1 24.2 16.6 63 4.6 SE 11 22 6 12 1012.6 1012.5 0.0
20/08:30am 23.2 22.9 15.5 62 4.6 SE 11 17 6 9 1012.5 1012.4 0.0
20/08:00am 22.3 21.9 14.2 60 4.7 SE 9 17 5 9 1012.2 1012.1 0.0
20/07:30am 21.6 20.4 12.7 57 5.1 SE 11 17 6 9 1012.0 1011.9 0.0
20/07:00am 21.4 19.8 11.7 54 5.4 SSE 11 17 6 9 1011.7 1011.6 0.0
20/06:30am 21.2 19.5 11.2 53 5.5 SE 11 17 6 9 1011.5 1011.4 0.0
20/06:00am 21.1 19.4 10.0 49 6.0 SE 9 15 5 8 1011.1 1011.0 0.0
20/05:30am 21.6 19.5 9.8 47 6.4 SE 11 19 6 10 1010.8 1010.7 0.0
20/05:00am 21.9 19.2 9.1 44 6.8 SSE 13 20 7 11 1010.6 1010.5 0.0
20/04:30am 21.8 18.9 8.3 42 7.1 SSE 13 19 7 10 1010.6 1010.5 0.0
20/04:00am 22.1 19.2 8.2 41 7.3 SSE 13 20 7 11 1010.7 1010.6 0.0
20/03:30am 22.2 19.3 8.0 40 7.4 SSE 13 20 7 11 1010.8 1010.7 0.0
20/03:00am 22.2 19.3 8.0 40 7.4 SSE 13 20 7 11 1011.2 1011.1 0.0
20/02:30am 22.1 19.1 7.9 40 7.4 S 13 19 7 10 1011.3 1011.2 0.0
20/02:00am 22.5 19.5 7.5 38 7.8 S 13 19 7 10 1011.5 1011.4 0.0
20/01:30am 22.8 19.8 7.8 38 7.9 S 13 20 7 11 1011.7 1011.6 0.0
20/01:00am 22.7 20.2 8.4 40 7.6 S 11 15 6 8 1011.9 1011.8 0.0
20/12:30am 22.1 21.0 10.6 48 6.3 S 7 11 4 6 1012.3 1012.2 0.0
20/12:00am 21.6 21.2 12.5 56 5.2 S 6 9 3 5 1012.5 1012.4 0.0
 
Date/Time
CST
Temp
°C
App
Temp
°C
Dew
Point
°C
Rel
Hum
%
Delta-T
°C
Wind Press
QNH
hPa
Press
MSL
hPa
Rain since
9am
mm
Dir  Spd
km/h
Gust
km/h
Spd
kts
Gust
kts
19/11:30pm 22.6 22.5 13.9 58 5.1 S 7 9 4 5 1012.9 1012.8 0.0
19/11:00pm 22.3 23.7 17.7 75 2.9 S 7 11 4 6 1013.2 1013.1 0.0
19/10:30pm 22.0 23.9 18.6 81 2.1 SSW 6 9 3 5 1013.2 1013.1 0.0
19/10:00pm 22.2 24.1 19.0 82 2.0 SSW 7 9 4 5 1013.1 1013.0 0.0
19/09:30pm 22.2 25.5 19.0 82 2.0 CALM 0 0 0 0 1012.8 1012.7 0.0
19/09:00pm 22.6 25.9 19.2 81 2.2 CALM 0 0 0 0 1012.6 1012.5 0.0
19/08:30pm 22.9 26.3 19.3 80 2.3 CALM 0 0 0 0 1012.5 1012.4 0.0
19/08:00pm 23.5 26.8 19.2 77 2.7 CALM 0 0 0 0 1012.0 1011.9 0.0
19/07:30pm 24.1 27.4 19.2 74 3.1 CALM 0 0 0 0 1011.6 1011.5 0.0
19/07:00pm 24.9 27.8 19.1 70 3.7 NNE 2 4 1 2 1011.2 1011.1 0.0
19/06:30pm 26.3 28.7 19.7 67 4.3 N 6 9 3 5 1010.8 1010.7 0.0
19/06:00pm 26.6 28.2 19.2 64 4.8 NNE 9 13 5 7 1010.4 1010.3 0.0
19/05:30pm 26.9 27.5 18.7 60 5.3 NNE 13 17 7 9 1010.1 1010.0 0.0
19/05:00pm 28.8 29.9 16.7 48 7.6 ENE 6 7 3 4 1009.6 1009.5 0.0
19/04:30pm 29.3 29.5 14.7 41 8.9 ENE 7 15 4 8 1009.4 1009.3 0.0
19/04:00pm 30.2 29.3 11.2 31 11.0 ESE 7 13 4 7 1009.3 1009.2 0.0
19/03:30pm 30.3 29.5 11.8 32 10.8 ESE 7 13 4 7 1009.3 1009.2 0.0
19/03:00pm 29.8 28.1 11.3 32 10.7 SE 11 22 6 12 1009.5 1009.4 0.0
19/02:30pm 29.2 26.6 10.8 32 10.5 ESE 15 28 8 15 1009.6 1009.5 0.0
19/02:00pm 29.2 27.0 10.8 32 10.5 SE 13 22 7 12 1009.6 1009.5 0.0
19/01:30pm 28.6 26.0 10.8 33 10.1 ESE 15 24 8 13 1010.1 1010.0 0.0
19/01:00pm 28.0 25.9 11.1 35 9.6 SE 13 26 7 14 1010.4 1010.3 0.0
19/12:30pm 27.5 25.0 12.3 39 8.8 ESE 17 28 9 15 1010.8 1010.7 0.0
19/12:00pm 26.9 24.4 12.2 40 8.5 SE 17 30 9 16 1011.2 1011.1 0.0
19/11:30am 26.5 24.0 12.2 41 8.3 SE 17 28 9 15 1011.6 1011.5 0.0
19/11:00am 26.1 23.3 12.5 42 7.9 SE 19 33 10 18 1012.1 1012.0 0.0
19/10:30am 25.3 22.5 13.2 47 7.1 SE 20 41 11 22 1012.5 1012.4 0.0
19/10:00am 24.9 22.8 13.5 49 6.7 SE 17 39 9 21 1012.8 1012.7 0.0
19/09:30am 24.3 22.7 13.8 52 6.2 ESE 15 32 8 17 1012.8 1012.7 0.0
19/09:00am 23.3 21.6 13.5 54 5.7 SE 15 28 8 15 1012.6 1012.5 0.0
19/08:30am 21.9 20.6 12.5 55 5.3 SE 11 20 6 11 1012.4 1012.3 0.0
19/08:00am 20.7 19.5 11.6 56 5.0 SSE 9 17 5 9 1012.4 1012.3 0.0
19/07:30am 20.4 19.1 11.1 55 5.1 SSE 9 13 5 7 1012.1 1012.0 0.0
19/07:00am 20.4 19.1 11.1 55 5.1 SSE 9 15 5 8 1011.6 1011.5 0.0
19/06:30am 20.4 19.1 11.1 55 5.1 SSE 9 15 5 8 1011.3 1011.2 0.0
19/06:00am 20.7 19.4 11.1 54 5.3 SSE 9 13 5 7 1010.9 1010.8 0.0
19/05:30am 21.0 19.9 10.8 52 5.6 SE 7 13 4 7 1010.8 1010.7 0.0
19/05:00am 21.4 19.9 10.6 50 5.9 SE 9 15 5 8 1010.8 1010.7 0.0
19/04:30am 21.7 20.1 10.2 48 6.3 SSE 9 17 5 9 1010.8 1010.7 0.0
19/04:00am 21.9 20.3 10.1 47 6.4 SSE 9 15 5 8 1010.8 1010.7 0.0
19/03:30am 22.2 20.1 9.7 45 6.8 SSE 11 17 6 9 1010.8 1010.7 0.0
19/03:00am 22.4 20.2 9.2 43 7.1 SSE 11 19 6 10 1011.0 1010.9 0.0
19/02:30am 22.7 20.0 8.8 41 7.4 SSE 13 19 7 10 1011.1 1011.0 0.0
19/02:00am 22.7 19.9 8.4 40 7.6 SSE 13 20 7 11 1011.3 1011.2 0.0
19/01:30am 23.0 20.1 8.3 39 7.8 SSE 13 24 7 13 1011.5 1011.4 0.0
19/01:00am 23.2 20.3 8.1 38 8.0 SSE 13 19 7 10 1011.7 1011.6 0.0
19/12:30am 23.4 21.0 8.7 39 7.9 SSE 11 19 6 10 1012.0 1011.9 0.0
19/12:00am 23.4 21.1 9.0 40 7.7 S 11 19 6 10 1012.3 1012.2 0.0
 
Date/Time
CST
Temp
°C
App
Temp
°C
Dew
Point
°C
Rel
Hum
%
Delta-T
°C
Wind Press
QNH
hPa
Press
MSL
hPa
Rain since
9am
mm
Dir  Spd
km/h
Gust
km/h
Spd
kts
Gust
kts
18/11:30pm 23.4 21.4 10.1 43 7.3 S 11 19 6 10 1012.4 1012.3 0.0
18/11:00pm 23.1 21.9 11.5 48 6.5 S 9 13 5 7 1012.3 1012.2 0.0
18/10:30pm 22.1 22.8 15.5 66 3.9 S 6 7 3 4 1012.5 1012.4 0.0
18/10:00pm 21.8 23.1 17.2 75 2.8 SSW 6 7 3 4 1012.6 1012.5 0.0
18/09:30pm 21.7 23.3 17.9 79 2.4 SSW 6 7 3 4 1012.4 1012.3 0.0
18/09:00pm 22.0 23.6 17.8 77 2.6 SSW 6 7 3 4 1012.3 1012.2 0.0
18/08:30pm 22.2 24.7 18.2 78 2.5 SSW 2 4 1 2 1012.1 1012.0 0.0
18/08:00pm 22.7 24.9 18.3 76 2.8 SSW 4 6 2 3 1011.8 1011.7 0.0
18/07:30pm 23.7 26.7 18.4 72 3.3 CALM 0 0 0 0 1011.3 1011.2 0.0
18/07:00pm 24.2 27.2 18.4 70 3.7 CALM 0 0 0 0 1010.9 1010.8 0.0
18/06:30pm 25.8 28.1 18.5 64 4.6 NNW 4 7 2 4 1010.3 1010.2 0.0
18/06:00pm 26.8 28.2 18.6 60 5.2 N 9 13 5 7 1009.9 1009.8 0.0
18/05:30pm 28.4 30.5 16.3 47 7.5 CALM 0 0 0 0 1009.7 1009.6 0.0
18/05:00pm 28.4 29.8 15.3 45 8.0 ENE 2 4 1 2 1009.4 1009.3 0.0
18/04:30pm 29.3 30.1 15.8 44 8.3 ENE 6 11 3 6 1009.1 1009.0 0.0
18/04:00pm 29.8 29.2 12.3 34 10.3 E 7 15 4 8 1009.2 1009.1 0.0
18/03:30pm 29.4 28.6 12.8 36 9.8 E 9 15 5 8 1009.3 1009.2 0.0
18/03:00pm 29.7 27.5 10.8 31 10.8 E 13 22 7 12 1009.5 1009.4 0.0
18/02:30pm 29.3 26.2 8.9 28 11.3 ESE 15 26 8 14 1009.7 1009.6 0.0
18/02:00pm 29.3 25.7 8.4 27 11.5 ESE 17 28 9 15 1010.0 1009.9 0.0
18/01:30pm 28.5 25.2 8.2 28 11.1 ESE 15 32 8 17 1010.4 1010.3 0.0
18/01:00pm 27.9 23.9 8.2 29 10.7 ESE 19 28 10 15 1010.7 1010.6 0.0
18/12:30pm 27.5 23.3 7.4 28 10.8 ESE 19 39 10 21 1011.1 1011.0 0.0
18/12:00pm 26.5 21.6 7.0 29 10.3 ESE 22 37 12 20 1011.6 1011.5 0.0
18/11:30am 26.4 22.2 7.4 30 10.1 ESE 19 43 10 23 1012.2 1012.1 0.0
18/11:00am 25.6 21.4 5.8 28 10.2 ESE 17 32 9 17 1012.6 1012.5 0.0
18/10:30am 24.5 19.6 4.3 27 10.0 SE 19 32 10 17 1013.0 1012.9 0.0
18/10:00am 23.9 19.9 4.8 29 9.5 SE 15 24 8 13 1013.0 1012.9 0.0
18/09:30am 23.0 19.4 5.0 31 9.0 SE 13 26 7 14 1013.1 1013.0 0.0
18/09:00am 21.3 17.7 5.2 35 8.0 SE 13 22 7 12 1013.0 1012.9 0.0
18/08:30am 20.3 17.0 4.8 36 7.5 SE 11 22 6 12 1012.9 1012.8 0.0
18/08:00am 20.0 17.0 4.1 35 7.6 SSE 9 17 5 9 1012.7 1012.6 0.0
18/07:30am 19.6 16.4 3.3 34 7.7 SE 9 15 5 8 1012.4 1012.3 0.0
18/07:00am 19.3 16.6 3.5 35 7.4 SE 7 13 4 7 1012.2 1012.1 0.0
18/06:30am 20.1 17.0 3.8 34 7.8 SE 9 17 5 9 1011.9 1011.8 0.0
18/06:00am 20.5 17.0 3.3 32 8.2 SE 11 20 6 11 1011.8 1011.7 0.0
18/05:30am 20.8 17.2 3.1 31 8.4 SE 11 17 6 9 1011.7 1011.6 0.0
18/05:00am 20.9 17.3 3.2 31 8.4 SE 11 22 6 12 1011.6 1011.5 0.0
18/04:30am 21.1 17.6 3.3 31 8.5 SE 11 19 6 10 1011.7 1011.6 0.0
18/04:00am 21.2 17.3 3.4 31 8.5 SSE 13 24 7 13 1011.7 1011.6 0.0
18/03:30am 21.3 17.8 3.5 31 8.5 SE 11 17 6 9 1011.9 1011.8 0.0
18/03:00am 21.4 17.9 3.6 31 8.5 SE 11 17 6 9 1012.0 1011.9 0.0
18/02:30am 21.5 18.1 4.1 32 8.4 SSE 11 19 6 10 1012.3 1012.2 0.0
18/02:00am 21.4 17.7 4.5 33 8.2 SSE 13 20 7 11 1012.6 1012.5 0.0
18/01:30am 21.6 18.2 4.2 32 8.5 SSE 11 19 6 10 1012.8 1012.7 0.0
18/01:00am 22.0 18.3 4.6 32 8.5 SSE 13 20 7 11 1013.1 1013.0 0.0
18/12:30am 22.0 18.3 4.6 32 8.5 SSE 13 20 7 11 1013.3 1013.2 0.0
18/12:00am 21.9 18.7 5.3 34 8.3 SSE 11 19 6 10 1013.1 1013.0 0.0

Other Formats:

Comma delimited format used in spreadsheet applications
http://www.bom.gov.au/fwo/IDD60801/IDD60801.99510.axf

JavaScript Object Notation format (JSON) in row-major order
http://www.bom.gov.au/fwo/IDD60801/IDD60801.99510.json